• Join FlightAware (Why Join?)
  • Login
  • US Flag 
10:54AM EST


 

Airport Tracker/Info


-or-


 

Live Flight TrackerFlight Track Log ✈ GJS6221 ✈ 26-Dec-2013 ✈ KLGA - KSAV

Flight Track Log - Related Links

Times and Time Zones

All times are in EST time to prevent confusion due to time zone crossing. See the GJS6221 flight status page for this flight to view local times or setup timezone preferences in your user account.

Time Position Orientation Groundspeed Altitude Reporting Facility
EST Latitude Longitude Course Direction KTS MPH feet Rate Location/Type
01:59PM 40.8178 -73.9106 214° Southwest 179 206 1,900  Level New York Center
02:00PM 40.8608 -73.9428 330° Northwest 224 258 4,300 2,520 Climbing New York Center
02:01PM 40.8883 -74.0044 301° West 242 278 7,000 2,880 Climbing New York Center
02:02PM 40.8333 -74.0333 202° Southwest 230 265 10,300 2,280 Climbing New York TRACON
02:03PM 40.7667 -74.0833 210° Southwest 278 320 11,700 660 Climbing New York TRACON
02:04PM 40.4108 -74.2286 214° Southwest  Level Estimated
02:05PM 40.6092 -74.1444 196° South 291 335 12,400  Level New York Center
02:06PM 40.5297 -74.1594 188° South 305 351 14,300 1,860 Climbing New York Center
02:07PM 40.4353 -74.1767 188° South 322 371 16,200 1,320 Climbing New York Center
02:08PM 40.3392 -74.1936 188° South 341 392 17,000 720 Climbing New York Center
02:09PM 40.2367 -74.1994 182° South 359 413 17,700 1,260 Climbing New York Center
02:11PM 40.0536 -74.2336 188° South 361 415 21,000 1,560 Climbing Washington Center
02:12PM 39.9708 -74.2867 206° Southwest 349 402 22,500 1,440 Climbing Washington Center
02:13PM 39.8967 -74.3528 214° Southwest 333 383 23,900 1,260 Climbing Washington Center
02:14PM 39.8203 -74.4272 217° Southwest 338 389 25,100 1,140 Climbing Washington Center
02:15PM 39.7544 -74.5147 226° Southwest 343 395 26,300 1,140 Climbing Washington Center
02:16PM 39.6906 -74.5992 225° Southwest 336 387 27,400 900 Climbing Washington Center
02:17PM 39.6247 -74.6864 226° Southwest 341 392 28,200 720 Climbing Washington Center
02:18PM 39.5567 -74.7761 225° Southwest 341 392 28,900 660 Climbing Washington Center
02:19PM 39.4883 -74.8683 226° Southwest 352 405 29,600 660 Climbing Washington Center
02:20PM 39.4014 -74.9442 214° Southwest 370 426 30,300 660 Climbing Washington Center
02:21PM 39.3119 -75.0175 212° Southwest 381 438 31,000 660 Climbing Washington Center
02:22PM 39.2228 -75.0906 212° Southwest 388 447 31,700 780 Climbing Washington Center
02:23PM 39.1314 -75.1608 211° Southwest 388 447 32,600 900 Climbing Washington Center
02:24PM 39.0400 -75.2308 211° Southwest 388 447 33,600 960 Climbing Washington Center
02:25PM 38.9525 -75.3061 214° Southwest 383 441 34,600 900 Climbing Washington Center
02:26PM 38.8672 -75.3731 211° Southwest 378 435 35,500 660 Climbing Washington Center
02:27PM 38.7819 -75.4400 211° Southwest 373 429 36,000 240 Climbing Washington Center
02:28PM 38.6944 -75.5092 212° Southwest 373 429 36,000 300 Level Washington Center
02:29PM 38.6069 -75.5758 211° Southwest 373 429 36,700 600 Climbing Washington Center
02:30PM 38.5214 -75.6447 212° Southwest 373 429 37,300 540 Climbing Washington Center
02:31PM 38.4358 -75.7136 212° Southwest 368 423 37,800 300 Climbing Washington Center
02:32PM 38.3503 -75.7797 211° Southwest 363 418 38,000 60 Climbing Washington Center
02:33PM 38.2500 -75.8481 208° Southwest 369 425 38,000  Level Washington Center
02:34PM 38.1644 -75.9167 212° Southwest 369 425 38,000  Level Washington Center
02:35PM 38.0786 -75.9822 211° Southwest 369 425 38,000  Level Washington Center
02:36PM 37.9992 -76.0422 211° Southwest 374 430 38,000  Level Washington Center
02:37PM 37.9133 -76.1103 212° Southwest 374 430 38,000  Level Washington Center
02:38PM 37.8275 -76.1781 212° Southwest 369 425 38,000  Level Washington Center
02:39PM 37.7397 -76.2406 209° Southwest 369 425 38,000  Level Washington Center
02:40PM 37.6517 -76.3078 211° Southwest 369 425 38,000  Level Washington Center
02:41PM 37.5636 -76.3753 211° Southwest 369 425 38,000  Level Washington Center
02:42PM 37.4736 -76.4422 211° Southwest 369 425 38,000  Level Washington Center
02:43PM 37.3856 -76.5092 211° Southwest 369 425 38,000  Level Washington Center
02:44PM 37.2953 -76.5786 211° Southwest 374 430 38,000  Level Washington Center
02:45PM 37.1986 -76.6506 211° Southwest 374 430 38,000  Level Washington Center
02:46PM 37.1083 -76.7169 210° Southwest 379 436 38,000  Level Washington Center
02:47PM 37.0181 -76.7833 210° Southwest 379 436 38,000  Level Washington Center
02:48PM 36.9297 -76.8519 212° Southwest 379 436 38,000  Level Washington Center
02:49PM 36.8436 -76.9181 212° Southwest 379 436 38,000  Level Washington Center
02:50PM 36.7531 -76.9839 210° Southwest 379 436 38,000  Level Washington Center
02:51PM 36.6667 -77.0575 214° Southwest 379 436 38,000  Level Washington Center
02:53PM 36.5039 -77.2094 217° Southwest 379 436 38,000  Level Washington Center
02:54PM 36.4236 -77.2853 217° Southwest 374 430 38,000  Level Washington Center
02:55PM 36.3433 -77.3608 217° Southwest 369 425 38,000  Level Washington Center
02:56PM 36.2628 -77.4364 217° Southwest 374 430 38,000  Level Washington Center
02:57PM 36.1867 -77.5119 219° Southwest 361 415 38,000  Level Washington Center
02:58PM 36.1061 -77.5869 217° Southwest 361 415 38,000  Level Washington Center
02:59PM 36.0256 -77.6647 218° Southwest 367 422 38,000  Level Washington Center
03:00PM 35.9408 -77.7342 214° Southwest 372 428 38,000  Level Washington Center
03:01PM 35.8561 -77.7986 212° Southwest 377 434 38,000  Level Washington Center
03:02PM 35.7694 -77.8678 213° Southwest 372 428 38,000  Level Washington Center
03:03PM 35.6844 -77.9344 213° Southwest 372 428 38,000  Level Washington Center
03:04PM 35.5978 -78.0008 212° Southwest 372 428 38,000  Level Washington Center
03:05PM 35.5128 -78.0672 212° Southwest 372 428 38,000  Level Washington Center
03:06PM 35.4281 -78.1333 212° Southwest 372 428 38,000  Level Washington Center
03:07PM 35.3431 -78.1994 212° Southwest 372 428 38,000  Level Washington Center
03:08PM 35.2583 -78.2653 212° Southwest 372 428 38,000  Level Washington Center
03:09PM 35.1711 -78.3311 212° Southwest 372 428 38,000  Level Washington Center
03:10PM 35.0883 -78.3969 213° Southwest 372 428 38,000  Level Washington Center
03:11PM 35.0033 -78.4622 212° Southwest 372 428 38,000  Level Washington Center
03:12PM 34.9161 -78.5278 212° Southwest 372 428 38,000  Level Washington Center
03:13PM 34.8311 -78.5956 213° Southwest 372 428 38,000  Level Washington Center
03:14PM 34.7544 -78.6533 212° Southwest 364 419 38,000  Level Washington Center
03:15PM 34.6156 -78.7578 212° Southwest 368 423 38,000  Level Jacksonville Center
03:16PM 34.5344 -78.8297 216° Southwest 368 423 38,000  Level Jacksonville Center
03:17PM 34.4642 -78.9111 224° Southwest 363 418 38,000  Level Jacksonville Center
03:18PM 34.3853 -78.9903 220° Southwest 363 418 38,000  Level Jacksonville Center
03:19PM 34.3083 -79.0692 220° Southwest 368 423 38,000  Level Jacksonville Center
03:20PM 34.2314 -79.1453 219° Southwest 368 423 38,000 -240 Level Jacksonville Center
03:21PM 34.1586 -79.2211 221° Southwest 368 423 37,600 -720 Descending Jacksonville Center
03:22PM 34.0792 -79.2947 218° Southwest 368 423 36,600 -1,020 Descending Jacksonville Center
03:23PM 34.0022 -79.3756 221° Southwest 368 423 35,600 -1,080 Descending Jacksonville Center
03:24PM 33.9189 -79.4539 218° Southwest 362 417 34,500 -1,080 Descending Jacksonville Center
03:25PM 33.8417 -79.5344 221° Southwest 357 411 33,500 -1,020 Descending Jacksonville Center
03:26PM 33.7625 -79.6100 218° Southwest 362 417 32,500 -1,020 Descending Jacksonville Center
03:27PM 33.6831 -79.6903 220° Southwest 367 422 31,500 -1,020 Descending Jacksonville Center
03:28PM 33.6036 -79.7706 220° Southwest 372 428 30,500 -1,020 Descending Jacksonville Center
03:29PM 33.5244 -79.8531 221° Southwest 377 434 29,500 -1,020 Descending Jacksonville Center
03:30PM 33.4469 -79.9303 220° Southwest 372 428 28,500 -1,020 Descending Jacksonville Center
03:31PM 33.3753 -79.9975 218° Southwest 372 428 27,500 -1,020 Descending Jacksonville Center
03:32PM 33.2978 -80.0744 220° Southwest 372 428 26,500 -1,260 Descending Jacksonville Center
03:33PM 33.2203 -80.1514 220° Southwest 372 428 25,000 -1,500 Descending Jacksonville Center
03:34PM 33.1406 -80.2283 219° Southwest 372 428 23,600 -1,500 Descending Jacksonville Center
03:35PM 33.0586 -80.3075 219° Southwest 378 435 22,100 -1,500 Descending Jacksonville Center
03:36PM 32.9789 -80.3867 220° Southwest 378 435 20,600 -1,500 Descending Jacksonville Center
03:37PM 32.8947 -80.4681 219° Southwest 378 435 19,100 -1,380 Descending Jacksonville Center
03:38PM 32.8169 -80.5444 220° Southwest 378 435 17,900 -1,380 Descending Jacksonville Center
03:39PM 32.7369 -80.6206 219° Southwest 378 435 16,400 -1,500 Descending Jacksonville Center
03:40PM 32.6611 -80.6939 219° Southwest 371 427 14,900 -1,500 Descending Jacksonville Center
03:41PM 32.5850 -80.7672 219° Southwest 371 427 13,400 -1,860 Descending Jacksonville Center
03:42PM 32.5258 -80.8450 228° Southwest 351 404 11,200 -1,680 Descending Jacksonville Center
03:43PM 32.4725 -80.9153 228° Southwest 317 365 10,100 -1,500 Descending Jacksonville Center
03:44PM 32.4297 -80.9825 233° Southwest 272 313 8,300 -1,980 Descending Jacksonville Center
03:45PM 32.3892 -81.0647 240° Southwest 261 300 6,200 -1,860 Descending Jacksonville Center
03:46PM 32.3547 -81.1367 240° Southwest 255 293 4,600 -1,620 Descending Jacksonville Center
03:47PM 32.3203 -81.2061 240° Southwest 250 288 3,000 -1,320 Descending Jacksonville Center
03:48PM 32.2897 -81.2658 239° Southwest 250 288 2,000 -540 Descending Jacksonville Center
03:49PM 32.2592 -81.3278 240° Southwest 232 267 2,000  Level Jacksonville Center
03:51PM 32.1675 -81.2347 139° Southeast  Level FlightAware Approximate
03:58PM 32.1276 -81.2021 180° South  Level Estimated
03:59PM 32.1276 -81.2021 180° South  Level Estimated
04:00PM 32.1276 -81.2021 180° South  Level Estimated
04:01PM 32.1276 -81.2021 180° South  Level Estimated
04:02PM 32.1276 -81.2021 180° South  Level Estimated
04:03PM 32.1276 -81.2021 180° South  Level Estimated
04:04PM 32.1276 -81.2021 180° South  Level Estimated
04:05PM 32.1276 -81.2021 180° South  Level Estimated